createdAt,value
2022-12-06T00:01:13.299Z,98530.53
2022-12-06T00:03:41.808Z,98531.66
2022-12-06T00:06:14.909Z,98531.66
2022-12-06T00:08:41.850Z,98536.97
2022-12-06T00:11:10.710Z,98531.03
2022-12-06T00:13:40.872Z,98532.09
2022-12-06T00:16:10.826Z,98539.81
2022-12-06T00:18:38.453Z,98532.19
2022-12-06T00:21:28.266Z,98526.81
2022-12-06T00:24:05.995Z,98531.41
2022-12-06T00:26:35.800Z,98531.69
2022-12-06T00:29:03.655Z,98531.25
2022-12-06T00:31:31.579Z,98528.72
2022-12-06T00:33:58.630Z,98520.22
2022-12-06T00:36:28.054Z,98519.28
2022-12-06T00:38:54.919Z,98515.13
2022-12-06T00:41:25.174Z,98517.03
2022-12-06T00:43:52.718Z,98518.75
2022-12-06T00:46:24.767Z,98516.91
2022-12-06T00:48:52.344Z,98515.97
2022-12-06T00:51:20.412Z,98523.59
2022-12-06T00:53:47.399Z,98525.59
2022-12-06T00:56:20.299Z,98523.81
2022-12-06T00:58:47.331Z,98524.19
2022-12-06T01:01:20.671Z,98520.28
2022-12-06T01:03:51.373Z,98524.25
2022-12-06T01:06:19.604Z,98524.06
2022-12-06T01:08:46.301Z,98526.78
2022-12-06T01:11:14.459Z,98522.84
2022-12-06T01:13:42.537Z,98523.06
2022-12-06T01:16:14.928Z,98515.06
2022-12-06T01:18:42.403Z,98528.81
2022-12-06T01:21:16.081Z,98526.91
2022-12-06T01:23:43.960Z,98528.13
2022-12-06T01:26:19.038Z,98525.75
2022-12-06T01:28:46.111Z,98522.44
2022-12-06T01:31:13.166Z,98518.97
2022-12-06T01:33:39.906Z,98516.94
2022-12-06T01:36:06.750Z,98512.47
2022-12-06T01:38:33.539Z,98507.56
2022-12-06T01:41:00.374Z,98511.00
2022-12-06T01:43:43.472Z,98504.63
2022-12-06T01:46:25.406Z,98507.81
2022-12-06T01:48:55.921Z,98507.13
2022-12-06T01:51:22.618Z,98504.63
2022-12-06T01:53:50.821Z,98504.13
2022-12-06T01:56:17.289Z,98505.72
2022-12-06T01:58:45.570Z,98505.84
2022-12-06T02:01:12.127Z,98497.72
2022-12-06T02:03:38.950Z,98507.25
2022-12-06T02:06:08.199Z,98509.59
2022-12-06T02:08:35.838Z,98510.44
2022-12-06T02:11:04.154Z,98505.78
2022-12-06T02:13:30.702Z,98502.69
2022-12-06T02:16:03.344Z,98501.94
2022-12-06T02:19:21.324Z,98498.44
2022-12-06T02:22:03.159Z,98498.34
2022-12-06T02:24:39.632Z,98489.88
2022-12-06T02:27:35.174Z,98489.88
2022-12-06T02:30:11.210Z,98492.94
2022-12-06T02:32:49.205Z,98486.78
2022-12-06T02:35:30.283Z,98487.22
2022-12-06T02:38:16.675Z,98483.81
2022-12-06T02:40:59.347Z,98483.41
2022-12-06T02:43:36.004Z,98482.22
2022-12-06T02:46:03.867Z,98486.69
2022-12-06T02:48:31.595Z,98476.59
2022-12-06T02:51:04.878Z,98484.34
2022-12-06T02:53:33.078Z,98468.00
2022-12-06T02:55:59.560Z,98474.03
2022-12-06T02:58:26.419Z,98475.88
2022-12-06T03:00:56.653Z,98475.44
2022-12-06T03:03:44.913Z,98475.00
2022-12-06T03:06:11.838Z,98473.94
2022-12-06T03:09:16.163Z,98470.97
2022-12-06T03:12:00.609Z,98464.63
2022-12-06T03:14:28.980Z,98470.03
2022-12-06T03:17:04.835Z,98468.53
2022-12-06T03:19:33.146Z,98468.22
2022-12-06T03:22:07.308Z,98468.56
2022-12-06T03:24:36.459Z,98466.63
2022-12-06T03:27:09.722Z,98459.72
2022-12-06T03:29:40.754Z,98459.94
2022-12-06T03:32:08.143Z,98461.72
2022-12-06T03:34:43.838Z,98458.88
2022-12-06T03:37:14.870Z,98448.78
2022-12-06T03:39:46.854Z,98452.53
2022-12-06T03:42:14.332Z,98447.41
2022-12-06T03:44:40.998Z,98458.22
2022-12-06T03:47:29.384Z,98446.38
2022-12-06T03:50:01.354Z,98449.13
2022-12-06T03:52:29.194Z,98452.72
2022-12-06T03:54:58.506Z,98447.94
2022-12-06T03:57:25.223Z,98449.97
2022-12-06T03:59:51.801Z,98443.47
2022-12-06T04:02:18.447Z,98443.47
2022-12-06T04:04:45.143Z,98438.72
2022-12-06T04:07:12.181Z,98437.44
2022-12-06T04:09:56.415Z,98442.00
2022-12-06T04:12:42.170Z,98438.09
2022-12-06T04:15:09.865Z,98433.00
2022-12-06T04:17:58.793Z,98432.03
2022-12-06T04:20:26.616Z,98431.94
2022-12-06T04:23:05.680Z,98423.66
2022-12-06T04:25:34.317Z,98421.13
2022-12-06T04:28:20.067Z,98420.66
2022-12-06T04:31:05.276Z,98428.09
2022-12-06T04:33:50.610Z,98423.66
2022-12-06T04:36:36.021Z,98428.75
2022-12-06T04:39:02.584Z,98426.41
2022-12-06T04:41:47.824Z,98419.63
2022-12-06T04:44:14.400Z,98414.75
2022-12-06T04:46:41.035Z,98415.06
2022-12-06T04:49:07.733Z,98418.78
2022-12-06T04:51:34.854Z,98411.78
2022-12-06T04:54:01.622Z,98413.25
2022-12-06T04:56:28.414Z,98415.59
2022-12-06T04:58:55.077Z,98407.50
2022-12-06T05:01:21.801Z,98411.75
2022-12-06T05:03:48.489Z,98403.91
2022-12-06T05:06:15.413Z,98401.78
2022-12-06T05:08:41.903Z,98401.16
2022-12-06T05:11:08.399Z,98405.06
2022-12-06T05:13:35.730Z,98403.28
2022-12-06T05:16:04.730Z,98404.78
2022-12-06T05:18:31.674Z,98409.31
2022-12-06T05:21:14.609Z,98412.63
2022-12-06T05:23:41.571Z,98411.94
2022-12-06T05:26:12.311Z,98411.00
2022-12-06T05:28:38.957Z,98406.44
2022-12-06T05:31:05.686Z,98410.47
2022-12-06T05:33:32.531Z,98408.88
2022-12-06T05:35:59.139Z,98408.03
2022-12-06T05:38:25.751Z,98404.28
2022-12-06T05:40:52.318Z,98402.09
2022-12-06T05:43:18.821Z,98404.09
2022-12-06T05:45:45.466Z,98402.81
2022-12-06T05:48:12.171Z,98403.47
2022-12-06T05:50:38.811Z,98404.53
2022-12-06T05:53:06.079Z,98404.34
2022-12-06T05:55:32.677Z,98394.47
2022-12-06T05:57:59.274Z,98408.16
2022-12-06T06:00:25.982Z,98402.22
2022-12-06T06:02:52.612Z,98404.94
2022-12-06T06:05:19.650Z,98405.38
2022-12-06T06:07:46.328Z,98408.97
2022-12-06T06:10:13.427Z,98410.22
2022-12-06T06:12:40.072Z,98410.75
2022-12-06T06:15:07.221Z,98407.19
2022-12-06T06:17:35.011Z,98415.06
2022-12-06T06:20:05.707Z,98409.09
2022-12-06T06:22:33.908Z,98416.09
2022-12-06T06:25:00.729Z,98413.84
2022-12-06T06:27:28.069Z,98407.19
2022-12-06T06:29:54.863Z,98418.00
2022-12-06T06:32:21.475Z,98411.94
2022-12-06T06:34:48.169Z,98406.25
2022-12-06T06:37:14.729Z,98407.72
2022-12-06T06:39:41.511Z,98403.91
2022-12-06T06:42:08.130Z,98394.25
2022-12-06T06:44:34.751Z,98394.16
2022-12-06T06:47:01.294Z,98391.16
2022-12-06T06:49:27.908Z,98391.69
2022-12-06T06:51:54.458Z,98394.13
2022-12-06T06:54:21.283Z,98405.69
2022-12-06T06:56:47.840Z,98402.53
2022-12-06T06:59:14.350Z,98407.81
2022-12-06T07:01:40.917Z,98413.22
2022-12-06T07:04:10.548Z,98405.59
2022-12-06T07:06:37.164Z,98411.94
2022-12-06T07:09:03.935Z,98411.72
2022-12-06T07:11:30.611Z,98407.41
2022-12-06T07:13:58.827Z,98415.56
2022-12-06T07:16:25.690Z,98411.56
2022-12-06T07:18:53.021Z,98413.66
2022-12-06T07:21:22.217Z,98411.88
2022-12-06T07:23:55.499Z,98412.19
2022-12-06T07:26:26.346Z,98407.25
2022-12-06T07:28:53.299Z,98417.88
2022-12-06T07:31:23.100Z,98415.41
2022-12-06T07:33:55.108Z,98414.25
2022-12-06T07:36:23.277Z,98406.59
2022-12-06T07:38:51.068Z,98412.03
2022-12-06T07:41:40.686Z,98411.16
2022-12-06T07:44:38.317Z,98406.41
2022-12-06T07:47:04.936Z,98412.66
2022-12-06T07:49:31.644Z,98419.34
2022-12-06T07:51:58.278Z,98418.22
2022-12-06T07:54:25.062Z,98408.56
2022-12-06T07:56:51.951Z,98407.38
2022-12-06T07:59:18.678Z,98415.97
2022-12-06T08:01:45.446Z,98409.50
2022-12-06T08:04:12.357Z,98404.25
2022-12-06T08:06:42.577Z,98402.53
2022-12-06T08:09:12.177Z,98411.06
2022-12-06T08:11:42.235Z,98410.03
2022-12-06T08:14:15.763Z,98416.69
2022-12-06T08:16:58.505Z,98411.94
2022-12-06T08:19:27.641Z,98413.72
2022-12-06T08:21:54.217Z,98406.72
2022-12-06T08:24:24.022Z,98408.66
2022-12-06T08:26:53.740Z,98411.09
2022-12-06T08:29:21.947Z,98412.09
2022-12-06T08:31:48.470Z,98416.38
2022-12-06T08:34:15.490Z,98406.97
2022-12-06T08:36:51.349Z,98418.22
2022-12-06T08:39:24.922Z,98424.66
2022-12-06T08:42:02.923Z,98426.72
2022-12-06T08:44:33.329Z,98421.03
2022-12-06T08:47:01.541Z,98415.22
2022-12-06T08:49:31.549Z,98418.84
2022-12-06T08:52:04.527Z,98420.56
2022-12-06T08:54:31.193Z,98415.56
2022-12-06T08:56:57.840Z,98418.09
2022-12-06T08:59:24.492Z,98422.56
2022-12-06T09:01:54.105Z,98421.97
2022-12-06T09:04:20.827Z,98421.06
2022-12-06T09:06:48.837Z,98431.47
2022-12-06T09:09:20.331Z,98426.41
2022-12-06T09:11:49.404Z,98427.81
2022-12-06T09:14:21.442Z,98427.22
2022-12-06T09:16:49.070Z,98435.00
2022-12-06T09:19:15.685Z,98426.56
2022-12-06T09:21:43.219Z,98436.78
2022-12-06T09:24:13.819Z,98434.78
2022-12-06T09:26:41.068Z,98429.06
2022-12-06T09:29:08.404Z,98428.69
2022-12-06T09:31:39.301Z,98432.59
2022-12-06T09:34:10.158Z,98430.84
2022-12-06T09:37:11.179Z,98435.94
2022-12-06T09:39:40.532Z,98430.50
2022-12-06T09:42:26.290Z,98423.50
2022-12-06T09:45:01.340Z,98428.25
2022-12-06T09:47:44.536Z,98430.41
2022-12-06T09:50:29.922Z,98427.31
2022-12-06T09:53:28.937Z,98426.25
2022-12-06T09:56:09.127Z,98426.28
2022-12-06T09:58:54.353Z,98425.72
2022-12-06T10:01:48.816Z,98420.38
2022-12-06T10:04:35.833Z,98423.59
2022-12-06T10:07:16.336Z,98425.09
2022-12-06T10:09:51.668Z,98423.19
2022-12-06T10:12:29.857Z,98419.59
2022-12-06T10:15:19.217Z,98424.91
2022-12-06T10:18:16.095Z,98423.19
2022-12-06T10:20:54.162Z,98417.41
2022-12-06T10:23:36.493Z,98424.19
2022-12-06T10:26:17.346Z,98416.22
2022-12-06T10:28:47.192Z,98413.59
2022-12-06T10:31:23.066Z,98417.38
2022-12-06T10:33:58.164Z,98419.41
2022-12-06T10:36:47.867Z,98415.91
2022-12-06T10:39:20.417Z,98424.34
2022-12-06T10:41:54.287Z,98406.69
2022-12-06T10:44:20.830Z,98412.72
2022-12-06T10:47:06.312Z,98411.53
2022-12-06T10:49:41.996Z,98404.66
2022-12-06T10:52:36.151Z,98405.59
2022-12-06T10:55:05.553Z,98401.31
2022-12-06T10:57:43.315Z,98405.19
2022-12-06T11:00:22.829Z,98401.81
2022-12-06T11:03:13.483Z,98402.75
2022-12-06T11:05:49.102Z,98395.56
2022-12-06T11:08:19.174Z,98395.31
2022-12-06T11:10:46.874Z,98393.69
2022-12-06T11:14:05.626Z,98390.91
2022-12-06T11:16:47.665Z,98388.19
2022-12-06T11:19:32.560Z,98391.59
2022-12-06T11:22:04.865Z,98393.63
2022-12-06T11:24:56.587Z,98391.38
2022-12-06T11:27:34.714Z,98394.78
2022-12-06T11:30:19.542Z,98392.66
2022-12-06T11:32:48.885Z,98392.47
2022-12-06T11:35:26.658Z,98391.38
2022-12-06T11:37:57.233Z,98392.31
2022-12-06T11:43:21.546Z,98394.75
2022-12-06T11:45:50.973Z,98399.75
2022-12-06T11:48:20.229Z,98401.16
2022-12-06T11:50:48.552Z,98397.97
2022-12-06T11:53:27.447Z,98395.19
2022-12-06T11:55:58.958Z,98396.81
2022-12-06T11:58:42.755Z,98395.19
2022-12-06T12:01:13.919Z,98391.81
2022-12-06T12:03:43.038Z,98390.53
2022-12-06T12:06:18.373Z,98395.72
2022-12-06T12:09:01.536Z,98388.94
2022-12-06T12:11:31.883Z,98396.25
2022-12-06T12:14:01.801Z,98386.81
2022-12-06T12:16:38.292Z,98385.03
2022-12-06T12:19:30.542Z,98393.44
2022-12-06T12:21:59.163Z,98387.19
2022-12-06T12:25:17.999Z,98382.72
2022-12-06T12:27:35.973Z,98384.59
2022-12-06T12:30:28.913Z,98380.66
2022-12-06T12:33:07.629Z,98384.94
2022-12-06T12:35:41.274Z,98382.63
2022-12-06T12:38:12.723Z,98381.47
2022-12-06T12:40:42.588Z,98383.28
2022-12-06T12:43:16.772Z,98382.00
2022-12-06T12:46:02.899Z,98378.78
2022-12-06T12:48:34.500Z,98381.00
2022-12-06T12:51:04.337Z,98380.75
2022-12-06T12:53:42.203Z,98378.09
2022-12-06T12:56:13.292Z,98376.75
2022-12-06T12:58:40.647Z,98375.53
2022-12-06T13:01:25.732Z,98377.97
2022-12-06T13:04:19.892Z,98379.94
2022-12-06T13:06:50.368Z,98377.88
2022-12-06T13:10:02.287Z,98377.88
2022-12-06T13:12:41.980Z,98369.06
2022-12-06T13:15:28.745Z,98376.88
2022-12-06T13:18:00.241Z,98373.31
2022-12-06T13:20:32.528Z,98367.66
2022-12-06T13:23:04.600Z,98362.41
2022-12-06T13:25:31.436Z,98361.16
2022-12-06T13:28:05.178Z,98363.47
2022-12-06T13:30:34.266Z,98367.19
2022-12-06T13:33:21.136Z,98366.75
2022-12-06T13:36:09.496Z,98357.63
2022-12-06T13:38:38.432Z,98359.38
2022-12-06T13:41:36.707Z,98359.00
2022-12-06T13:44:03.262Z,98366.16
2022-12-06T13:46:31.184Z,98365.13
2022-12-06T13:49:03.171Z,98365.13
2022-12-06T13:51:32.928Z,98369.91
2022-12-06T13:54:05.420Z,98366.72
2022-12-06T13:56:35.099Z,98357.13
2022-12-06T13:59:11.772Z,98371.78
2022-12-06T14:01:48.956Z,98368.19
2022-12-06T14:04:42.530Z,98370.38
2022-12-06T14:09:43.853Z,98365.75
2022-12-06T14:12:29.316Z,98366.78
2022-12-06T14:15:01.467Z,98372.53
2022-12-06T14:20:29.674Z,98375.84
2022-12-06T14:22:56.296Z,98378.00
2022-12-06T14:25:25.406Z,98375.88
2022-12-06T14:28:02.484Z,98377.84
2022-12-06T14:30:29.293Z,98373.50
2022-12-06T14:32:57.880Z,98371.28
2022-12-06T14:35:30.009Z,98374.47
2022-12-06T14:37:59.481Z,98376.19
2022-12-06T14:41:02.412Z,98376.06
2022-12-06T14:43:31.738Z,98376.72
2022-12-06T14:46:00.300Z,98375.19
2022-12-06T14:48:27.187Z,98374.75
2022-12-06T14:50:56.702Z,98375.66
2022-12-06T14:53:34.125Z,98380.28
2022-12-06T14:56:24.770Z,98376.22
2022-12-06T14:58:51.648Z,98378.66
2022-12-06T15:01:23.574Z,98381.19
2022-12-06T15:04:04.657Z,98375.03
2022-12-06T15:06:33.315Z,98373.13
2022-12-06T15:09:00.395Z,98371.66
2022-12-06T15:11:51.635Z,98369.41
2022-12-06T15:14:27.259Z,98369.97
2022-12-06T15:17:15.200Z,98375.72
2022-12-06T15:19:54.095Z,98377.81
2022-12-06T15:22:25.388Z,98370.50
2022-12-06T15:24:55.322Z,98371.63
2022-12-06T15:27:23.559Z,98365.50
2022-12-06T15:29:50.223Z,98365.72
2022-12-06T15:32:18.119Z,98373.09
2022-12-06T15:34:45.731Z,98365.28
2022-12-06T15:40:02.065Z,98363.81
2022-12-06T15:42:28.736Z,98358.06
2022-12-06T15:44:56.316Z,98361.44
2022-12-06T15:47:23.100Z,98359.91
2022-12-06T15:49:52.409Z,98365.06
2022-12-06T15:52:23.060Z,98360.44
2022-12-06T15:54:49.922Z,98366.88
2022-12-06T15:57:16.503Z,98369.75
2022-12-06T15:59:43.044Z,98368.72
2022-12-06T16:02:15.235Z,98367.41
2022-12-06T16:04:43.048Z,98369.63
2022-12-06T16:07:10.580Z,98376.31
2022-12-06T16:09:37.574Z,98379.50
2022-12-06T16:12:04.394Z,98381.19
2022-12-06T16:14:30.952Z,98380.59
2022-12-06T16:16:57.609Z,98387.47
2022-12-06T16:19:24.171Z,98388.53
2022-12-06T16:21:56.233Z,98385.25
2022-12-06T16:24:23.072Z,98383.22
2022-12-06T16:26:49.671Z,98383.22
2022-12-06T16:29:23.115Z,98385.22
2022-12-06T16:31:51.034Z,98392.75
2022-12-06T16:43:56.347Z,98385.63
2022-12-06T16:46:34.278Z,98379.75
2022-12-06T16:49:22.625Z,98386.31
2022-12-06T16:51:53.054Z,98385.97
2022-12-06T16:54:19.805Z,98386.72
2022-12-06T16:56:46.482Z,98388.19
2022-12-06T16:59:17.300Z,98380.34
2022-12-06T17:01:48.705Z,98383.69
2022-12-06T17:04:15.427Z,98383.84
2022-12-06T17:06:41.998Z,98381.41
2022-12-06T17:09:10.452Z,98389.00
2022-12-06T17:11:55.698Z,98392.00
2022-12-06T17:14:25.283Z,98391.25
2022-12-06T17:16:52.636Z,98393.00
2022-12-06T17:19:21.738Z,98383.28
2022-12-06T17:21:49.140Z,98389.97
2022-12-06T17:24:16.497Z,98387.78
2022-12-06T17:26:43.259Z,98386.66
2022-12-06T17:29:09.895Z,98387.03
2022-12-06T17:31:37.965Z,98390.63
2022-12-06T17:34:05.441Z,98383.69
2022-12-06T17:36:32.165Z,98375.47
2022-12-06T17:39:01.997Z,98381.97
2022-12-06T17:41:51.797Z,98369.91
2022-12-06T17:44:19.312Z,98369.28
2022-12-06T17:46:46.302Z,98375.25
2022-12-06T17:49:14.915Z,98375.00
2022-12-06T17:51:41.587Z,98375.69
2022-12-06T17:54:09.555Z,98378.81
2022-12-06T17:56:36.935Z,98377.75
2022-12-06T17:59:09.531Z,98384.44
2022-12-06T18:01:58.536Z,98385.66
2022-12-06T18:04:23.508Z,98385.00
2022-12-06T18:06:50.137Z,98388.16
2022-12-06T18:09:16.668Z,98382.44
2022-12-06T18:11:43.636Z,98388.03
2022-12-06T18:14:12.345Z,98383.91
2022-12-06T18:16:40.592Z,98388.75
2022-12-06T18:19:08.855Z,98388.56
2022-12-06T18:21:36.533Z,98396.63
2022-12-06T18:24:22.010Z,98399.19
2022-12-06T18:26:49.279Z,98394.91
2022-12-06T18:29:18.401Z,98392.13
2022-12-06T18:31:45.307Z,98396.59
2022-12-06T18:34:12.447Z,98400.16
2022-12-06T18:36:40.413Z,98398.78
2022-12-06T18:39:14.378Z,98396.41
2022-12-06T18:41:41.292Z,98399.09
2022-12-06T18:44:09.447Z,98395.06
2022-12-06T18:46:38.008Z,98405.19
2022-12-06T18:49:04.828Z,98396.59
2022-12-06T18:51:34.067Z,98397.97
2022-12-06T18:54:02.304Z,98396.66
2022-12-06T18:56:31.808Z,98402.94
2022-12-06T18:59:00.221Z,98397.69
2022-12-06T19:01:29.611Z,98404.97
2022-12-06T19:03:59.468Z,98399.41
2022-12-06T19:06:28.213Z,98395.50
2022-12-06T19:09:01.270Z,98401.97
2022-12-06T19:11:28.050Z,98407.84
2022-12-06T19:13:56.105Z,98397.50
2022-12-06T19:16:28.017Z,98403.00
2022-12-06T19:18:56.822Z,98404.50
2022-12-06T19:21:24.472Z,98403.84
2022-12-06T19:23:54.999Z,98406.97
2022-12-06T19:26:22.072Z,98405.81
2022-12-06T19:28:48.619Z,98402.94
2022-12-06T19:31:15.576Z,98398.81
2022-12-06T19:33:43.968Z,98395.06
2022-12-06T19:36:20.060Z,98396.16
2022-12-06T19:38:46.606Z,98401.13
2022-12-06T19:41:15.495Z,98397.00
2022-12-06T19:44:00.386Z,98393.72
2022-12-06T19:46:29.115Z,98386.94
2022-12-06T19:48:57.297Z,98385.47
2022-12-06T19:51:26.736Z,98392.25
2022-12-06T19:53:53.311Z,98391.19
2022-12-06T19:56:20.203Z,98394.03
2022-12-06T19:58:47.667Z,98387.59
2022-12-06T20:01:18.553Z,98387.16
2022-12-06T20:03:47.177Z,98392.88
2022-12-06T20:06:18.314Z,98389.56
2022-12-06T20:08:46.250Z,98396.03
2022-12-06T20:11:34.830Z,98391.63
2022-12-06T20:14:02.792Z,98387.53
2022-12-06T20:16:30.527Z,98389.44
2022-12-06T20:18:57.017Z,98384.38
2022-12-06T20:21:23.995Z,98388.44
2022-12-06T20:23:50.730Z,98392.56
2022-12-06T20:26:17.502Z,98386.50
2022-12-06T20:28:45.085Z,98395.84
2022-12-06T20:31:14.749Z,98391.41
2022-12-06T20:33:41.358Z,98395.22
2022-12-06T20:36:16.966Z,98392.34
2022-12-06T20:38:43.627Z,98385.09
2022-12-06T20:41:11.872Z,98382.22
2022-12-06T20:43:38.682Z,98392.84
2022-12-06T20:46:11.599Z,98395.09
2022-12-06T20:48:41.916Z,98392.03
2022-12-06T20:51:10.984Z,98394.03
2022-12-06T20:53:37.527Z,98386.41
2022-12-06T20:56:05.208Z,98402.16
2022-12-06T20:58:31.740Z,98400.66
2022-12-06T21:00:58.977Z,98393.50
2022-12-06T21:03:25.862Z,98398.78
2022-12-06T21:06:02.042Z,98400.84
2022-12-06T21:08:29.140Z,98396.56
2022-12-06T21:11:21.669Z,98396.78
2022-12-06T21:13:43.257Z,98388.41
2022-12-06T21:16:14.938Z,98394.66
2022-12-06T21:18:42.681Z,98394.78
2022-12-06T21:21:09.513Z,98391.59
2022-12-06T21:23:36.036Z,98389.94
2022-12-06T21:26:04.186Z,98391.06
2022-12-06T21:28:31.080Z,98391.41
2022-12-06T21:30:57.730Z,98389.91
2022-12-06T21:33:25.071Z,98386.72
2022-12-06T21:35:52.399Z,98395.66
2022-12-06T21:38:19.038Z,98390.66
2022-12-06T21:40:49.382Z,98397.22
2022-12-06T21:43:19.561Z,98390.44
2022-12-06T21:45:46.099Z,98405.06
2022-12-06T21:48:12.764Z,98400.31
2022-12-06T21:50:39.334Z,98398.16
2022-12-06T21:53:05.836Z,98390.88
2022-12-06T21:55:32.345Z,98400.00
2022-12-06T21:57:58.870Z,98401.16
2022-12-06T22:00:25.374Z,98390.94
2022-12-06T22:02:52.503Z,98402.75
2022-12-06T22:05:19.126Z,98399.78
2022-12-06T22:07:45.766Z,98400.28
2022-12-06T22:10:12.450Z,98403.03
2022-12-06T22:12:39.114Z,98400.72
2022-12-06T22:15:06.429Z,98408.56
2022-12-06T22:17:33.260Z,98407.69
2022-12-06T22:20:00.343Z,98403.84
2022-12-06T22:22:27.229Z,98404.66
2022-12-06T22:24:53.989Z,98403.63
2022-12-06T22:27:20.517Z,98413.56
2022-12-06T22:29:47.585Z,98408.75
2022-12-06T22:32:14.505Z,98404.34
2022-12-06T22:34:41.127Z,98404.00
2022-12-06T22:37:07.815Z,98404.75
2022-12-06T22:39:34.475Z,98399.22
2022-12-06T22:42:01.488Z,98400.09
2022-12-06T22:44:28.325Z,98394.53
2022-12-06T22:46:55.017Z,98389.63
2022-12-06T22:49:24.062Z,98393.41
2022-12-06T22:51:50.909Z,98393.22
2022-12-06T22:54:17.525Z,98399.25
2022-12-06T22:56:49.768Z,98400.28
2022-12-06T22:59:17.054Z,98394.78
2022-12-06T23:01:43.883Z,98389.00
2022-12-06T23:04:11.271Z,98392.38
2022-12-06T23:06:38.464Z,98391.75
2022-12-06T23:09:06.487Z,98383.47
2022-12-06T23:11:35.353Z,98393.50
2022-12-06T23:14:04.174Z,98395.88
2022-12-06T23:16:31.658Z,98397.31
2022-12-06T23:19:03.597Z,98400.94
2022-12-06T23:21:32.363Z,98397.13
2022-12-06T23:24:10.394Z,98385.78
2022-12-06T23:26:43.548Z,98391.59
2022-12-06T23:29:10.599Z,98394.69
2022-12-06T23:31:39.936Z,98386.81
2022-12-06T23:34:11.401Z,98386.19
2022-12-06T23:36:37.950Z,98382.69
2022-12-06T23:39:05.005Z,98390.53
2022-12-06T23:41:31.986Z,98387.78
2022-12-06T23:43:58.918Z,98379.16
2022-12-06T23:46:28.744Z,98389.25
2022-12-06T23:48:55.623Z,98385.84
2022-12-06T23:51:31.526Z,98383.03
2022-12-06T23:53:59.113Z,98383.06
2022-12-06T23:56:33.820Z,98369.44
2022-12-06T23:59:00.428Z,98375.16
